X  Close Metar Aviation Weather Data     EHKD De Kooy Airport
Temperature
64°F Temperature
57°F Dewpoint
78% Humidity



Wind
22 MPH
35 KM/H
10 M/S
19 KTS



230°
SW
Current Conditions

Mostly Cloudy Mostly Cloudy
Pressure 1006.77 (hPa) - 29.73 (inHg)
Visibility 6 (mile) - 9.7 (km)
Airport
Airport-code EHKD

Location: De Kooy Airport
Distance: 34 (mi)

Metar:
EHKD 160827Z AUTO 23019G29KT 200V260 9999 BKN016 BKN020 18/14 Q1007 WHT NOSIG

Time: 16-07-2024 10:27 CEST